Home > Products > Valid Products > MTR

000
SAUS41 KLWX 231328
MTRRYT
SPECI KRYT 231321Z AUTO 00000KT 2 1/2SM UP BKN011 OVC024 A3005 RMK
AO2 UPB07 P0002 $





000
SAUS41 KLWX 231319
MTRRYT
SPECI KRYT 231313Z AUTO 00000KT 3SM UP BKN009 BKN022 OVC034 A3005
RMK AO2 UPB07 CIG 007V012 P0001 $





000
SAUS41 KLWX 231315 COR
MTRRSP
METAR KRSP 231254Z AUTO 13007KT M1/4SM FG VV001 16/16 RMK AO2 RAE38
SLPNO P0001 T01610156 $





000
SAUS41 KLWX 231300
MTRRYT
METAR KRYT 231253Z AUTO 03004KT 5SM HZ FEW009 BKN017 OVC034 A3005
RMK AO2 RAE25UPB25E53 SLPNO P0039 $





000
SAUS41 KLWX 231259 COR
MTRDMH
METAR KDMH 231254Z AUTO 22/18 A3004 RMK AO1 SLP171 T02220183





000
SAUS41 KLWX 231255
MTRNAK
METAR KNAK 231254Z AUTO 09007KT 10SM 22/18 A3002 RMK AO2 SLP169
T02220183





000
SAUS41 KLWX 231239
MTRRYT
SPECI KRYT 231232Z AUTO 00000KT 5SM UP SCT009 BKN017 OVC037 A3004
RMK AO2 RAE25UPB25 P0037 $





000
SAUS41 KLWX 231230
MTRRYT
SPECI KRYT 231223Z AUTO 01005KT 2SM -RA FEW009 BKN017 OVC038 A3004
RMK AO2 P0037 $





000
SAUS41 KLWX 231215 COR
MTRRSP
METAR KRSP 231154Z AUTO 16009KT 1/4SM -RA FG VV001 16/16 RMK AO2
SLPNO P0005 60031 70034 T01610161 10189 20161 $





000
SAUS41 KLWX 231207
MTRRYT
SPECI KRYT 231206Z AUTO 00000KT 1/2SM RA SCT009 BKN015 OVC030 A3004
RMK AO2 P0020 $





000
SAUS41 KLWX 231200
MTRRYT
METAR KRYT 231153Z AUTO 00000KT 1/2SM RA FEW006 BKN009 OVC019 A3004
RMK AO2 RAB1056UPB04E09SNE1056B18E31 SLPNO P0044 60052 70060 52003 $





000
SAUS41 KLWX 231159 COR
MTRDMH
METAR KDMH 231154Z AUTO 22/18 A3004 RMK AO1 SLP170 T02170183 10222
20211 53012





000
SAUS41 KLWX 231155
MTRNAK
METAR KNAK 231154Z AUTO 08005KT 10SM FEW065 BKN100 22/19 A3002 RMK
AO2 SLP168 7//// T02170189 10222 20211 53012 $





000
SAUS41 KLWX 231149
MTRRYT
SPECI KRYT 231142Z AUTO 00000KT 1SM RA SCT006 BKN012 OVC023 A3004
RMK AO2 RAB1056UPB04E09SNE1056B18E31 P0026 $





000
SAUS41 KLWX 231140
MTRRYT
SPECI KRYT 231134Z AUTO 00000KT 1SM -RA SCT006 BKN021 OVC030 A3004
RMK AO2 RAB1056UPB04E09SNE1056B18E31 P0018 $





000
SAUS41 KLWX 231133
MTRRYT
SPECI KRYT 231126Z AUTO 00000KT 1 1/2SM -SN BKN006 BKN013 OVC032
A3003 RMK AO2 RAB1056E18UPB04E09SNE1056B18 CIG 002V009 P0013 $





000
SAUS41 KLWX 231125
MTRRYT
SPECI KRYT 231118Z AUTO 05003KT 1 1/4SM -SN FEW004 BKN013 OVC021
A3005 RMK AO2 RAB1056E18UPB04E09SNE1056B18 P0009 $





000
SAUS41 KLWX 231115
MTRRYT
SPECI KRYT 231111Z AUTO 00000KT 2SM -RA SCT004 BKN013 OVC021 A3006
RMK AO2 RAB1056UPB04E09SNE1056 PRESRR P0005 $





000
SAUS41 KLWX 231115 COR
MTRRSP
METAR KRSP 231054Z AUTO 15007KT 120V190 1/2SM -RA FG VV001 17/16 RMK
AO2 SLPNO P0025 T01670161 $





000
SAUS41 KLWX 231103
MTRRYT
SPECI KRYT 231056Z AUTO 05003KT 2SM -RA SCT004 BKN008 OVC014 A3003
RMK AO2 RAB56SNE56 P0001 $





000
SAUS41 KLWX 231100 COR
MTRRSP
SPECI KRSP 231039Z AUTO 14008KT 100V170 1/2SM -RA FG VV002 17/16 RMK
AO2 P0023 $





000
SAUS41 KLWX 231059 COR
MTRDMH
METAR KDMH 231054Z AUTO 21/18 A3003 RMK AO1 SLP167 T02110178





000
SAUS41 KLWX 231055
MTRNAK
METAR KNAK 231054Z AUTO 07004KT 10SM SCT100 21/18 A3001 RMK AO2
SLP165 T02110183 $





000
SAUS41 KLWX 231051 COR
MTRRSP
SPECI KRSP 231030Z AUTO 16007KT 1 1/4SM +RA BR OVC001 17/16 RMK AO2
P0020 $





000
SAUS41 KLWX 231037
MTRRSP
SPECI KRSP 231023Z AUTO 15005KT 2SM RA BR OVC001 17/16 RMK AO2 P0014
$





000
SAUS41 KLWX 231021
MTRRYT
SPECI KRYT 231014Z AUTO 00000KT 10SM OVC012 A3001 RMK AO2 $





000
SAUS41 KLWX 231015 COR
MTRRSP
METAR KRSP 230954Z AUTO 13005KT M1/4SM -RA FG VV001 17/17 RMK AO2
RAB48 SLPNO P0001 T01720167 $





000
SAUS41 KLWX 231000
MTRRYT
METAR KRYT 230953Z AUTO 00000KT 9SM OVC008 A3001 RMK AO2 SLPNO $





000
SAUS41 KLWX 230959 COR
MTRDMH
METAR KDMH 230954Z AUTO 21/18 A3001 RMK AO1 SLP161 T02110178





000
SAUS41 KLWX 230955
MTRNAK
METAR KNAK 230954Z AUTO 10SM 21/18 A2999 RMK AO2 SLP157 T02110183 $





000
SAUS41 KLWX 230915 COR
MTRRSP
METAR KRSP 230854Z AUTO 17007KT M1/4SM FG VV001 18/18 RMK AO2 SLPNO
T01780178 $





000
SAUS41 KLWX 230900
MTRRYT
METAR KRYT 230853Z AUTO 00000KT 6SM HZ OVC006 A2999 RMK AO2 SLPNO
57006 $





000
SAUS41 KLWX 230859 COR
MTRDMH
METAR KDMH 230854Z AUTO 22/17 A3000 RMK AO1 SLP159 T02170172 58004





000
SAUS41 KLWX 230855
MTRNAK
METAR KNAK 230854Z AUTO 08006KT 10SM OVC070 22/18 A2999 RMK AO2
SLP156 T02170183 58002 $





000
SAUS41 KLWX 230827
MTRRYT
SPECI KRYT 230820Z AUTO 00000KT 6SM HZ BKN006 OVC010 A3000 RMK AO2
CIG 005V008 $





000
SAUS41 KLWX 230817
MTRRYT
SPECI KRYT 230813Z AUTO 00000KT 7SM SCT006 OVC011 A3000 RMK AO2 $





000
SAUS41 KLWX 230815 COR
MTRRSP
METAR KRSP 230754Z AUTO 17006KT 1/4SM FG VV001 18/18 RMK AO2 SLPNO
T01830178 $





000
SAUS41 KLWX 230800
MTRRYT
METAR KRYT 230753Z AUTO 00000KT 8SM BKN011 OVC018 A3000 RMK AO2
SLPNO $





000
SAUS41 KLWX 230759 COR
MTRDMH
METAR KDMH 230754Z AUTO 22/17 A3001 RMK AO1 SLP160 T02170167





000
SAUS41 KLWX 230755
MTRNAK
METAR KNAK 230754Z AUTO 07005KT 10SM OVC065 22/18 A2999 RMK AO2
SLP157 T02170178 $





000
SAUS41 KLWX 230715 COR
MTRRSP
METAR KRSP 230654Z AUTO 17007KT 1/2SM FG VV001 18/18 RMK AO2 SLPNO
T01830178 $





000
SAUS41 KLWX 230702 COR
MTRRSP
SPECI KRSP 230645Z AUTO 17009KT 130V200 1/2SM FG VV001 18/18 RMK AO2
$





000
SAUS41 KLWX 230700
MTRRYT
METAR KRYT 230653Z AUTO 00000KT 10SM BKN010 OVC017 A3000 RMK AO2
SLPNO $





000
SAUS41 KLWX 230659 COR
MTRDMH
METAR KDMH 230654Z AUTO 22/17 A3001 RMK AO1 SLP161 T02170172





000
SAUS41 KLWX 230655
MTRNAK
METAR KNAK 230654Z AUTO 06004KT 10SM 22/18 A2999 RMK AO2 SLP157
T02170183 $





000
SAUS41 KLWX 230644 COR
MTRRSP
SPECI KRSP 230623Z AUTO 17007KT 2SM BR OVC001 18/18 RMK AO2 $





000
SAUS41 KLWX 230639
MTRRYT
SPECI KRYT 230632Z AUTO 00000KT 10SM SCT010 BKN014 OVC019 A3001 RMK
AO2 $





000
SAUS41 KLWX 230635 COR
MTRRSP
SPECI KRSP 230614Z AUTO 17006KT 1 1/2SM BR OVC001 18/18 RMK AO2 $





000
SAUS41 KLWX 230630
MTRRYT
SPECI KRYT 230623Z AUTO 00000KT 10SM SCT012 BKN017 OVC026 A3001 RMK
AO2 $





000
SAUS41 KLWX 230615 COR
MTRRSP
METAR KRSP 230554Z AUTO 16008KT 120V190 M1/4SM FG VV001 19/18 RMK
AO2 SLPNO 60003 T01890183 10206 20189 $





000
SAUS41 KLWX 230600
MTRRYT
METAR KRYT 230553Z AUTO 00000KT 10SM OVC012 A3001 RMK AO2 SLPNO
50000 $





000
SAUS41 KLWX 230559 COR
MTRDMH
METAR KDMH 230554Z AUTO 22/18 A3001 RMK AO1 SLP162 T02220178 10250
20222 58001





000
SAUS41 KLWX 230555
MTRNAK
METAR KNAK 230554Z AUTO 09009KT 10SM 22/19 A2999 RMK AO2 SLP158
6//// T02220189 10244 20222 58005 $





000
SAUS41 KLWX 230515 COR
MTRRSP
METAR KRSP 230454Z AUTO 18005KT 3/4SM BR VV001 19/18 RMK AO2
RAB19E30 SLPNO P0001 T01890183 402330178 $





000
SAUS41 KLWX 230502 COR
MTRRSP
SPECI KRSP 230441Z AUTO 19006KT 1 1/4SM BR OVC001 19/18 RMK AO2
RAB19E30 P0001 $





000
SAUS41 KLWX 230500
MTRRYT
METAR KRYT 230453Z AUTO 00000KT 6SM HZ OVC012 A3001 RMK AO2 SLPNO $





000
SAUS41 KLWX 230459 COR
MTRDMH
METAR KDMH 230454Z AUTO 23/18 A3002 RMK AO1 SLP164 T02280183
402610222





000
SAUS41 KLWX 230455
MTRNAK
METAR KNAK 230454Z AUTO 09008KT 10SM 23/19 A3001 RMK AO2 SLP163
T02280189 402610228 $





000
SAUS41 KLWX 230450
MTRRYT
SPECI KRYT 230443Z AUTO 00000KT 7SM BKN012 BKN022 OVC027 A3002 RMK
AO2 $





000
SAUS41 KLWX 230431
MTRRYT
SPECI KRYT 230424Z AUTO 00000KT 10SM SCT010 BKN017 OVC027 A3002 RMK
AO2 $





000
SAUS41 KLWX 230407
MTRRSP
METAR KRSP 230354Z AUTO VRB05KT 1/2SM FG VV001 19/18 RMK AO2 SLPNO
T01890183 $





000
SAUS41 KLWX 230407
MTRRSP
METAR KRSP 230354Z AUTO VRB05KT 1/2SM FG VV001 19/18 RMK AO2 SLPNO
T01890183 $





000
SAUS41 KLWX 230400
MTRRYT
METAR KRYT 230353Z AUTO 00000KT 7SM BKN010 OVC015 A3002 RMK AO2 CIG
009V012 SLPNO $





000
SAUS41 KLWX 230359 COR
MTRDMH
METAR KDMH 230354Z AUTO 23/19 A3002 RMK AO1 SLP166 T02330189





000
SAUS41 KLWX 230355
MTRNAK
METAR KNAK 230354Z AUTO 10009KT 10SM 23/19 A3001 RMK AO2 SLP164
T02280194 $





000
SAUS41 KLWX 230338 COR
MTRRSP
SPECI KRSP 230317Z AUTO VRB04KT 1 3/4SM BR OVC003 19/19 RMK AO2 $





000
SAUS41 KLWX 230321 COR
MTRRSP
SPECI KRSP 230302Z AUTO VRB05KT 2 1/2SM BR OVC003 19/19 RMK AO2 $





000
SAUS41 KLWX 230313 COR
MTRRSP
METAR KRSP 230254Z AUTO 18008KT 3SM BR OVC003 19/19 RMK AO2 RAE18
SLPNO P0001 60002 T01940189 $





000
SAUS41 KLWX 230300
MTRRYT
METAR KRYT 230253Z AUTO 00000KT 5SM HZ BKN014 OVC026 A3001 RMK AO2
SLPNO 50006 $





000
SAUS41 KLWX 230259 COR
MTRDMH
METAR KDMH 230254Z AUTO 23/19 A3002 RMK AO1 SLP164 T02330194 51014





000
SAUS41 KLWX 230256
MTRNAK
METAR KNAK 230254Z AUTO 10009KT 10SM 23/20 A3001 RMK AO2 SLP163
6//// T02330200 51012 $





000
SAUS41 KLWX 230239
MTRRSP
SPECI KRSP 230225Z AUTO 14005KT 2 1/2SM BR OVC003 19/19 RMK AO2
RAE18 CIG 002V006 P0001 $





000
SAUS41 KLWX 230215 COR
MTRRSP
METAR KRSP 230154Z AUTO VRB06KT 2SM -RA BR OVC003 20/19 RMK AO2
RAB45 SLPNO P0001 T02000194 $





000
SAUS41 KLWX 230210
MTRRYT
SPECI KRYT 230206Z AUTO 00000KT 4SM HZ FEW009 BKN020 OVC037 A3002
RMK AO2 $





000
SAUS41 KLWX 230159 COR
MTRDMH
METAR KDMH 230154Z AUTO 24/19 A3001 RMK AO1 SLP162 T02390194





000
SAUS41 KLWX 230156
MTRRYT
METAR KRYT 230149Z AUTO 00000KT 3SM BR FEW021 OVC035 A3001 RMK AO2
SLPNO $





000
SAUS41 KLWX 230155
MTRNAK
METAR KNAK 230154Z AUTO 11010KT 10SM 24/19 A3000 RMK AO2 SLP160
T02390194 $





000
SAUS41 KLWX 230141
MTRRYT
SPECI KRYT 230134Z AUTO 00000KT 2 1/2SM BR FEW011 BKN023 OVC033
A3001 RMK AO2 $





000
SAUS41 KLWX 230130
MTRRYT
SPECI KRYT 230123Z AUTO 00000KT 3SM BR FEW001 BKN017 OVC029 A3001
RMK AO2 $





000
SAUS41 KLWX 230126 COR
MTRRSP
SPECI KRSP 230108Z AUTO VRB03KT 4SM BR OVC003 21/19 RMK AO2 CIG
002V006 $





000
SAUS41 KLWX 230115 COR
MTRRSP
METAR KRSP 230054Z AUTO VRB04KT 4SM BR OVC005 21/19 RMK AO2 CIG
004V008 SLPNO T02060194 $





000
SAUS41 KLWX 230112
MTRRYT
SPECI KRYT 230108Z AUTO 00000KT 2SM BR SCT001 BKN029 A3000 RMK AO2 $





000
SAUS41 KLWX 230105
MTRRYT
SPECI KRYT 230058Z AUTO 00000KT 1 3/4SM BR FEW001 BKN029 A3000 RMK
AO2 $





000
SAUS41 KLWX 230059 COR
MTRDMH
METAR KDMH 230054Z AUTO 24/19 A3000 RMK AO1 SLP159 T02440194





000
SAUS41 KLWX 230055
MTRNAK
METAR KNAK 230054Z AUTO 10008KT 10SM FEW033 BKN048 OVC060 24/21
A2999 RMK AO2 RAB2358E46 SLP156 P0000 T02390206 $





000
SAUS41 KLWX 230052 COR
MTRRSP
SPECI KRSP 230031Z AUTO 14005KT 3SM BR OVC005 21/19 RMK AO2 CIG
002V008 $





000
SAUS41 KLWX 230038
MTRRYT
SPECI KRYT 230031Z AUTO 00000KT 2 1/2SM BR FEW009 A2999 RMK AO2 $





000
SAUS41 KLWX 230023 COR
MTRRSP
SPECI KRSP 230003Z AUTO 14005KT 2 1/2SM BR SCT005 BKN008 BKN013
21/19 RMK AO2 CIG 006V010 $





000
SAUS41 KLWX 230021
MTRRYT
SPECI KRYT 230014Z AUTO 00000KT 4SM HZ CLR A2999 RMK AO2 $





000
SAUS41 KLWX 230016
MTRNAK
SPECI KNAK 230014Z AUTO 10009KT 10SM -RA OVC030 24/20 A2997 RMK AO2
RAB2358 P0000 T02440200 $





000
SAUS41 KLWX 230015 COR
MTRRSP
METAR KRSP 222354Z AUTO 12003KT 3SM BR BKN005 OVC011 21/19 RMK AO2
CIG 004V010 SLPNO T02060194 10233 20206 $





000
SAUS41 KLWX 230000
MTRRYT
METAR KRYT 222353Z AUTO 00000KT 2 1/2SM BR FEW021 A2998 RMK AO2
SLPNO 60008 54000 $





000
SAUS41 KLWX 222359 COR
MTRDMH
METAR KDMH 222354Z AUTO 25/20 A2997 RMK AO1 SLP150 T02500200 10261
20250 51003





000
SAUS41 KLWX 222355
MTRNAK
METAR KNAK 222354Z AUTO 12011KT 10SM BKN027 OVC037 24/21 A2997 RMK
AO2 SLP151 T02440206 10261 20244 53006 $





000
SAUS41 KLWX 222348
MTRNAK
SPECI KNAK 222347Z AUTO 12014KT 10SM FEW022 BKN027 OVC037 25/21
A2997 RMK AO2 T02500206 $





000
SAUS41 KLWX 222342
MTRNAK
SPECI KNAK 222339Z AUTO 11014KT 10SM SCT024 BKN032 OVC047 25/21
A2997 RMK AO2 T02500206 $





000
SAUS41 KLWX 222340 COR
MTRRSP
SPECI KRSP 222323Z AUTO 00000KT 2SM BR BKN005 21/19 RMK AO2 CIG
004V009 $





000
SAUS41 KLWX 222332 COR
MTRRSP
SPECI KRSP 222315Z AUTO 13003KT 2 1/2SM BR SCT005 21/19 RMK AO2 $





000
SAUS41 KLWX 222329
MTRNAK
SPECI KNAK 222328Z AUTO 12011KT 10SM BKN024 BKN033 25/21 A2997 RMK
AO2 T02500206 $





000
SAUS41 KLWX 222323 COR
MTRRSP
SPECI KRSP 222305Z AUTO 00000KT 3SM BR FEW005 21/19 RMK AO2 $





000
SAUS41 KLWX 222315 COR
MTRRSP
METAR KRSP 222254Z AUTO 00000KT 3SM BR CLR 21/19 RMK AO2 SLPNO
T02110189 $





000
SAUS41 KLWX 222300
MTRRYT
METAR KRYT 222253Z AUTO 00000KT 5SM HZ CLR A2998 RMK AO2 SLPNO $





000
SAUS41 KLWX 222259 COR
MTRDMH
METAR KDMH 222254Z AUTO 26/19 A2997 RMK AO1 SLP149 T02560189





000
SAUS41 KLWX 222255
MTRNAK
METAR KNAK 222254Z AUTO 00000KT 10SM FEW024 SCT035 OVC100 25/21
A2997 RMK AO2 SLP149 T02500211 $





000
SAUS41 KLWX 222215 COR
MTRRSP
METAR KRSP 222154Z AUTO VRB03KT 4SM BR FEW008 BKN080 22/19 RMK AO2
SLPNO T02170194 $





000
SAUS41 KLWX 222200
MTRRYT
METAR KRYT 222153Z AUTO 03003KT 6SM HZ SCT013 A2998 RMK AO2 SLPNO $





000
SAUS41 KLWX 222159 COR
MTRDMH
METAR KDMH 222154Z AUTO 26/20 A2997 RMK AO1 SLP148 T02610200





000
SAUS41 KLWX 222155
MTRNAK
METAR KNAK 222154Z AUTO 06006KT 10SM OVC100 26/21 A2996 RMK AO2
SLP147 T02610206 $





000
SAUS41 KLWX 222115 COR
MTRRSP
METAR KRSP 222054Z AUTO 20003KT 7SM SCT044 BKN080 23/19 RMK AO2
SLPNO T02280189 $





000
SAUS41 KLWX 222100
MTRRYT
METAR KRYT 222053Z AUTO 04004KT 5SM HZ FEW013 OVC055 A2998 RMK AO2
SLPNO 60008 56010 $





000
SAUS41 KLWX 222059 COR
MTRDMH
METAR KDMH 222054Z AUTO 26/19 A2997 RMK AO1 SLP147 T02560189 56008





000
SAUS41 KLWX 222055
MTRNAK
METAR KNAK 222054Z AUTO 04006KT 10SM 26/21 A2995 RMK AO2 SLP145
T02560206 56009 $





000
SAUS41 KLWX 222015 COR
MTRRSP
METAR KRSP 221954Z AUTO 00000KT 4SM HZ SCT039 OVC048 22/19 RMK AO2
SLPNO T02170189 $





000
SAUS41 KLWX 222000
MTRRYT
METAR KRYT 221953Z AUTO 00000KT 3SM BR OVC060 A2999 RMK AO2
RAE11UPB11E13SNB1857E08 SLPNO P0005 $





000
SAUS41 KLWX 221959 COR
MTRDMH
METAR KDMH 221954Z AUTO 26/20 A2997 RMK AO1 SLP148 T02560200





000
SAUS41 KLWX 221957
MTRNAK
METAR KNAK 221954Z AUTO 02005KT 10SM 25/21 A2996 RMK AO2 SLP146
T02500211 $





000
SAUS41 KLWX 221944 COR
MTRRSP
SPECI KRSP 221923Z AUTO 00000KT 5SM HZ FEW009 SCT013 OVC049 22/19
RMK AO2 $





000
SAUS41 KLWX 221925
MTRRYT
SPECI KRYT 221918Z AUTO 00000KT 2 1/2SM BR FEW039 OVC065 A3000 RMK
AO2 RAE11UPB11E13SNB1857E08 P0005 $





000
SAUS41 KLWX 221912 COR
MTRRSP
METAR KRSP 221854Z AUTO VRB03KT 6SM HZ BKN011 OVC065 22/19 RMK AO2
SLPNO T02220189 $





000
SAUS41 KLWX 221900
MTRRYT
METAR KRYT 221853Z AUTO 00000KT 1 1/2SM -RA SCT039 SCT049 OVC060
A3001 RMK AO2 UPB41E52RAB52 SLPNO P0003 $





000
SAUS41 KLWX 221859 COR
MTRDMH
METAR KDMH 221854Z AUTO 26/20 A2998 RMK AO1 SLP152 T02610200





000
SAUS41 KLWX 221855
MTRNAK
METAR KNAK 221854Z AUTO 10SM 25/21 A2998 RMK AO2 SLP152 T02500206 $





000
SAUS41 KLWX 221845 COR
MTRRSP
SPECI KRSP 221824Z AUTO 00000KT 6SM HZ BKN015 BKN027 OVC080 23/18
RMK AO2 $





000
SAUS41 KLWX 221823 COR
MTRRSP
SPECI KRSP 221804Z AUTO VRB03KT 7SM SCT013 BKN075 OVC085 23/18 RMK
AO2 $





000
SAUS41 KLWX 221815 COR
MTRRSP
METAR KRSP 221754Z AUTO 16003KT 6SM HZ BKN013 BKN048 OVC070 22/18
RMK AO2 SLPNO T02220183 10228 20194 $





000
SAUS41 KLWX 221802 COR
MTRRSP
SPECI KRSP 221741Z AUTO VRB03KT 6SM HZ BKN013 OVC048 22/19 RMK AO2 $





000
SAUS41 KLWX 221800
MTRRYT
METAR KRYT 221753Z AUTO 00000KT 8SM SCT024 SCT060 OVC080 A3001 RMK
AO2 SLPNO 56003 $





000
SAUS41 KLWX 221759 COR
MTRDMH
METAR KDMH 221754Z AUTO 26/21 A2999 RMK AO1 SLP155 T02560211 10256
20228 56005





000
SAUS41 KLWX 221756
MTRNAK
METAR KNAK 221754Z AUTO 04006KT 10SM 24/21 A2998 RMK AO2 SLP154
T02440206 10256 20233 56003 $





000
SAUS41 KLWX 221752
MTRRYT
SPECI KRYT 221751Z AUTO 00000KT 8SM SCT024 BKN060 OVC080 A3001 RMK
AO2 $





000
SAUS41 KLWX 221735 COR
MTRRSP
SPECI KRSP 221714Z AUTO 00000KT 7SM BKN015 OVC049 23/18 RMK AO2 $





000
SAUS41 KLWX 221731
MTRRYT
SPECI KRYT 221724Z AUTO 03003KT 9SM BKN022 BKN080 A3001 RMK AO2 $





000
SAUS41 KLWX 221715 COR
MTRRSP
METAR KRSP 221654Z AUTO 23003KT 7SM SCT013 BKN049 BKN075 22/18 RMK
AO2 SLPNO T02170183 $





000
SAUS41 KLWX 221700
MTRRYT
METAR KRYT 221653Z AUTO VRB03KT 9SM FEW018 BKN110 A3001 RMK AO2
SLPNO $





000
SAUS41 KLWX 221659 COR
MTRDMH
METAR KDMH 221654Z AUTO 26/21 A2999 RMK AO1 SLP156 T02560206





000
SAUS41 KLWX 221656
MTRNAK
METAR KNAK 221654Z AUTO 02006KT 10SM 24/21 A2998 RMK AO2 SLP155
T02440206 $





000
SAUS41 KLWX 221623 COR
MTRRSP
SPECI KRSP 221603Z AUTO 00000KT 7SM FEW009 BKN048 OVC100 22/18 RMK
AO2 $





000
SAUS41 KLWX 221615 COR
MTRRSP
METAR KRSP 221554Z AUTO 13003KT 6SM HZ BKN048 BKN075 OVC100 21/18
RMK AO2 SLPNO T02110183 $





000
SAUS41 KLWX 221600
MTRRYT
METAR KRYT 221553Z AUTO 00000KT 10SM BKN110 A3002 RMK AO2 SLPNO $





000
SAUS41 KLWX 221559 COR
MTRDMH
METAR KDMH 221554Z AUTO 25/20 A3000 RMK AO1 SLP157 T02500200





000
SAUS41 KLWX 221556
MTRNAK
METAR KNAK 221554Z AUTO 10SM 25/21 A2999 RMK AO2 SLP156 T02500206





000
SAUS41 KLWX 221515 COR
MTRRSP
METAR KRSP 221454Z AUTO 00000KT 8SM OVC100 21/18 RMK AO2 SLPNO
T02060178 $





000
SAUS41 KLWX 221500
MTRRYT
METAR KRYT 221453Z AUTO VRB03KT 10SM FEW120 A3002 RMK AO2 SLPNO
58003 $





000
SAUS41 KLWX 221459 COR
MTRDMH
METAR KDMH 221454Z AUTO 24/21 A3000 RMK AO1 SLP160 T02440206 50004





000
SAUS41 KLWX 221455
MTRNAK
METAR KNAK 221454Z AUTO 00000KT 10SM 26/21 A2999 RMK AO2 SLP157
T02560211 51004 $





000
SAUS41 KLWX 221442 COR
MTRRSP
SPECI KRSP 221421Z AUTO 00000KT 9SM SCT021 OVC100 21/18 RMK AO2 $





000
SAUS41 KLWX 221417
MTRRYT
SPECI KRYT 221410Z AUTO 00000KT 9SM OVC031 A3003 RMK AO2 $





000
SAUS41 KLWX 221415 COR
MTRRSP
METAR KRSP 221354Z AUTO 00000KT 9SM OVC017 21/18 RMK AO2 SLPNO
T02060178 $





000
SAUS41 KLWX 221400
MTRRYT
METAR KRYT 221353Z AUTO 00000KT 7SM BKN027 OVC033 A3003 RMK AO2
SLPNO $





000
SAUS41 KLWX 221359 COR
MTRDMH
METAR KDMH 221354Z AUTO 24/21 A3001 RMK AO1 SLP161 T02390206





000
SAUS41 KLWX 221356
MTRNAK
METAR KNAK 221354Z AUTO 06006KT 8SM 24/21 A2999 RMK AO2 SLP156
T02440206 $





000
SAUS41 KLWX 221337
MTRNAK
SPECI KNAK 221335Z AUTO 05007KT 6SM HZ 24/21 A3000 RMK AO2 T02390211
$





000
SAUS41 KLWX 221315 COR
MTRRSP
METAR KRSP 221254Z AUTO 00000KT 9SM OVC017 21/18 RMK AO2 SLPNO
T02060183 $





000
SAUS41 KLWX 221300
MTRRYT
METAR KRYT 221253Z AUTO 00000KT 7SM OVC023 A3004 RMK AO2 SLPNO $





000
SAUS41 KLWX 221259 COR
MTRDMH
METAR KDMH 221254Z AUTO 23/21 A3001 RMK AO1 SLP162 T02280206





000
SAUS41 KLWX 221256
MTRNAK
METAR KNAK 221254Z AUTO 31006KT 6SM BR OVC012 23/21 A2999 RMK AO2
SLP158 T02330211 $





000
SAUS41 KLWX 221223
MTRNAK
SPECI KNAK 221222Z AUTO 31006KT 6SM HZ BKN014 BKN019 23/21 A2999 RMK
AO2 T02330206 $





000
SAUS41 KLWX 221215 COR
MTRRSP
METAR KRSP 221154Z AUTO 00000KT 6SM BR BKN015 BKN023 OVC033 19/18
RMK AO2 SLPNO 70027 T01940183 10194 20178 $





000
SAUS41 KLWX 221203 COR
MTRRSP
SPECI KRSP 221142Z AUTO 00000KT 6SM BR OVC013 19/18 RMK AO2 $





000
SAUS41 KLWX 221200
MTRRYT
METAR KRYT 221153Z AUTO 00000KT 6SM HZ BKN025 OVC050 A3003 RMK AO2
SLPNO 60001 70001 53017 $





000
SAUS41 KLWX 221159 COR
MTRDMH
METAR KDMH 221154Z AUTO 23/20 A2999 RMK AO1 SLP156 T02330200 10250
20222 53010





000
SAUS41 KLWX 221155
MTRNAK
METAR KNAK 221154Z AUTO 32006KT 6SM HZ FEW014 FEW028 23/21 A2998 RMK
AO2 SLP154 T02330206 10239 20228 53012 $





000
SAUS41 KLWX 221143 COR
MTRRSP
SPECI KRSP 221122Z AUTO 00000KT 4SM BR BKN015 19/18 RMK AO2 $





000
SAUS41 KLWX 221119
MTRRYT
SPECI KRYT 221113Z AUTO 00000KT 5SM HZ BKN023 A3001 RMK AO2 $





000
SAUS41 KLWX 221115 COR
MTRRSP
METAR KRSP 221054Z AUTO 02003KT 5SM BR CLR 18/17 RMK AO2 SLPNO
T01830167 $





000
SAUS41 KLWX 221100
MTRRYT
METAR KRYT 221053Z AUTO 00000KT 4SM HZ SCT042 BKN050 A3000 RMK AO2
SLPNO P0001 $





000
SAUS41 KLWX 221059 COR
MTRDMH
METAR KDMH 221054Z AUTO 22/19 A2998 RMK AO1 SLP153 T02220194





000
SAUS41 KLWX 221055
MTRNAK
METAR KNAK 221054Z AUTO 33007KT 7SM BKN050 23/20 A2996 RMK AO2
SLP148 T02280200





000
SAUS41 KLWX 221015 COR
MTRRSP
METAR KRSP 220954Z AUTO 34004KT 4SM BR CLR 18/17 RMK AO2 SLPNO
T01780167 $





000
SAUS41 KLWX 221000
MTRRYT
METAR KRYT 220953Z AUTO 00000KT 5SM HZ CLR A2999 RMK AO2 SLPNO $





000
SAUS41 KLWX 220959 COR
MTRDMH
METAR KDMH 220954Z AUTO 23/19 A2997 RMK AO1 SLP148 T02280194





000
SAUS41 KLWX 220955
MTRNAK
METAR KNAK 220954Z AUTO 35005KT 9SM CLR 23/21 A2995 RMK AO2 SLP142
T02330206





000
SAUS41 KLWX 220915 COR
MTRRSP
METAR KRSP 220854Z AUTO 35004KT 6SM BR CLR 18/17 RMK AO2 SLPNO
T01830167 $





000
SAUS41 KLWX 220900
MTRRYT
METAR KRYT 220853Z AUTO 00000KT 8SM FEW048 A2998 RMK AO2 SLPNO 56006
$





000
SAUS41 KLWX 220859 COR
MTRDMH
METAR KDMH 220854Z AUTO 23/19 A2996 RMK AO1 SLP146 T02280194 55001





000
SAUS41 KLWX 220855
MTRNAK
METAR KNAK 220854Z AUTO 29004KT 9SM BKN045 23/20 A2995 RMK AO2
SLP142 T02280200 56004





000
SAUS41 KLWX 220815 COR
MTRRSP
METAR KRSP 220754Z AUTO 36004KT 9SM CLR 18/17 RMK AO2 SLPNO
T01830172 $





000
SAUS41 KLWX 220801 COR
MTRDMH
METAR KDMH 220754Z AUTO 23/19 A2996 RMK AO1 SLP144 T02330194





000
SAUS41 KLWX 220800
MTRRYT
METAR KRYT 220753Z AUTO 00000KT 10SM CLR A2998 RMK AO2 SLPNO $





000
SAUS41 KLWX 220800 COR
MTRDMH
METAR KDMH 220754Z AUTO 23/19 A2996 RMK AO1 SLP144 T02330194





000
SAUS41 KLWX 220759 COR
MTRDMH
METAR KDMH 220754Z AUTO 23/19 A2996 RMK AO1 SLP144 T02330194





000
SAUS41 KLWX 220755
MTRNAK
METAR KNAK 220754Z AUTO 28005KT 9SM CLR 23/20 A2995 RMK AO2 SLP143
T02280200





000
SAUS41 KLWX 220715 COR
MTRRSP
METAR KRSP 220654Z AUTO 36005KT 7SM CLR 18/17 RMK AO2 SLPNO
T01830172 $





000
SAUS41 KLWX 220700
MTRRYT
METAR KRYT 220653Z AUTO 00000KT 10SM CLR A2999 RMK AO2 SLPNO $





000
SAUS41 KLWX 220659 COR
MTRDMH
METAR KDMH 220654Z AUTO 24/20 A2996 RMK AO1 SLP143 T02390200





000
SAUS41 KLWX 220655
MTRNAK
METAR KNAK 220654Z AUTO 25003KT 8SM CLR 23/21 A2995 RMK AO2 SLP142
T02330211





000
SAUS41 KLWX 220615 COR
MTRRSP
METAR KRSP 220554Z AUTO 34006KT 7SM CLR 19/18 RMK AO2 SLPNO
T01890178 10206 20189 $





000
SAUS41 KLWX 220600
MTRRYT
METAR KRYT 220553Z AUTO 00000KT 10SM CLR A3000 RMK AO2 SLPNO 58003 $





000
SAUS41 KLWX 220559 COR
MTRDMH
METAR KDMH 220554Z AUTO 25/19 A2997 RMK AO1 SLP147 T02500194 10278
20244 58007





000
SAUS41 KLWX 220556
MTRNAK
METAR KNAK 220554Z AUTO 00000KT 7SM SCT080 24/22 A2996 RMK AO2
SLP146 60000 T02390222 10272 20233 58008





000
SAUS41 KLWX 220515 COR
MTRRSP
METAR KRSP 220454Z AUTO VRB06KT 6SM BR OVC085 19/18 RMK AO2 SLPNO
T01890183 402780178 $





000
SAUS41 KLWX 220500
MTRRYT
METAR KRYT 220453Z AUTO 15003KT 10SM CLR A3001 RMK AO2 SLPNO $





000
SAUS41 KLWX 220459 COR
MTRDMH
METAR KDMH 220454Z AUTO 25/22 A2998 RMK AO1 SLP150 T02500217
403060222





000
SAUS41 KLWX 220455
MTRNAK
METAR KNAK 220454Z AUTO 00000KT 8SM CLR 24/22 A2997 RMK AO2 SLP150
T02390217 402780222





000
SAUS41 KLWX 220415 COR
MTRRSP
METAR KRSP 220354Z AUTO 32006G14KT 7SM SCT080 19/18 RMK AO2 SLPNO
T01940183 $





000
SAUS41 KLWX 220415 COR
MTRRSP
METAR KRSP 220354Z AUTO 32006G14KT 7SM SCT080 19/18 RMK AO2 SLPNO
T01940183 $





000
SAUS41 KLWX 220400
MTRRYT
METAR KRYT 220353Z AUTO 00000KT 10SM CLR A3001 RMK AO2 SLPNO $





000
SAUS41 KLWX 220359 COR
MTRDMH
METAR KDMH 220354Z AUTO 25/22 A2999 RMK AO1 SLP154 T02500222





000
SAUS41 KLWX 220356
MTRNAK
METAR KNAK 220354Z AUTO 00000KT 8SM CLR 25/22 A2998 RMK AO2 RAB04E42
SLP153 P0000 T02500217





000
SAUS41 KLWX 220315 COR
MTRRSP
METAR KRSP 220254Z AUTO 31007KT 6SM BR CLR 19/18 A2990 RMK AO2
SLP117 T01940183 58035 $





000
SAUS41 KLWX 220300
MTRRYT
METAR KRYT 220253Z AUTO 00000KT 7SM CLR A3001 RMK AO2 SLPNO 51003 $





000
SAUS41 KLWX 220259 COR
MTRDMH
METAR KDMH 220254Z AUTO 26/21 A2999 RMK AO1 SLP154 T02610211 53000





000
SAUS41 KLWX 220255
MTRNAK
METAR KNAK 220254Z AUTO 00000KT 9SM FEW065 26/22 A2998 RMK AO2
SLP154 T02610217 53001





000
SAUS41 KLWX 220215 COR
MTRRSP
METAR KRSP 220154Z AUTO 30007KT 270V330 7SM CLR 19/18 A2998 RMK AO2
SLP145 T01940183 $





000
SAUS41 KLWX 220200
MTRRYT
METAR KRYT 220153Z AUTO 00000KT 7SM CLR A3001 RMK AO2 SLPNO $





000
SAUS41 KLWX 220159 COR
MTRDMH
METAR KDMH 220154Z AUTO 27/20 A2999 RMK AO1 SLP155 T02670200





000
SAUS41 KLWX 220155
MTRNAK
METAR KNAK 220154Z AUTO 00000KT 10SM SCT110 26/21 A2997 RMK AO2
SLP152 T02610211





000
SAUS41 KLWX 220115 COR
MTRRSP
METAR KRSP 220054Z AUTO 00000KT 7SM CLR 20/18 A3000 RMK AO2 SLP152
T02000183 $





000
SAUS41 KLWX 220100
MTRRYT
METAR KRYT 220053Z AUTO 00000KT 10SM FEW050 A3001 RMK AO2 SLPNO $





000
SAUS41 KLWX 220059 COR
MTRDMH
METAR KDMH 220054Z AUTO 27/20 A2997 RMK AO1 SLP149 T02720200





000
SAUS41 KLWX 220055
MTRNAK
METAR KNAK 220054Z AUTO 00000KT 10SM FEW120 27/22 A2997 RMK AO2
SLP151 T02670217





000
SAUS41 KLWX 220015 COR
MTRRSP
METAR KRSP 212354Z AUTO 00000KT 10SM SCT037 21/18 A3001 RMK AO2
SLP157 60027 T02060183 10278 20206 58002 $





000
SAUS41 KLWX 220000
MTRRYT
METAR KRYT 212353Z AUTO 00000KT 10SM SCT042 BKN060 A3000 RMK AO2
SLPNO 56006 $





000
SAUS41 KLWX 212359 COR
MTRDMH
METAR KDMH 212354Z AUTO 28/21 A2999 RMK AO1 SLP154 T02780206 10300
20278 53001





000
SAUS41 KLWX 212355
MTRNAK
METAR KNAK 212354Z AUTO 00000KT 10SM CLR 27/22 A2998 RMK AO2 SLP153
T02720217 10278 20267 58002





000
SAUS41 KLWX 212315 COR
MTRRSP
METAR KRSP 212254Z AUTO VRB04KT 10SM CLR 22/18 A3002 RMK AO2 SLP161
T02170183 $





000
SAUS41 KLWX 212300
MTRRYT
METAR KRYT 212253Z AUTO 00000KT 10SM SCT049 SCT080 BKN100 A3000 RMK
AO2 SLPNO $





000
SAUS41 KLWX 212259 COR
MTRDMH
METAR KDMH 212254Z AUTO 28/23 A2998 RMK AO1 SLP151 T02830228





000
SAUS41 KLWX 212255
MTRNAK
METAR KNAK 212254Z AUTO 18004KT 10SM BKN110 27/22 A2998 RMK AO2
SLP154 T02720217





000
SAUS41 KLWX 212214 COR
MTRRSP
METAR KRSP 212154Z AUTO 24005KT 8SM FEW075 BKN100 22/20 A3002 RMK
AO2 SLP159 T02220200 $





000
SAUS41 KLWX 212200
MTRRYT
METAR KRYT 212153Z AUTO 24003KT 9SM FEW080 BKN100 A3000 RMK AO2
SLPNO $





000
SAUS41 KLWX 212159 COR
MTRDMH
METAR KDMH 212154Z AUTO 28/23 A2998 RMK AO1 SLP152 T02780228





000
SAUS41 KLWX 212155
MTRNAK
METAR KNAK 212154Z AUTO 17004KT 10SM SCT120 27/22 A2998 RMK AO2
SLP155 T02720217





000
SAUS41 KLWX 212115 COR
MTRRSP
METAR KRSP 212054Z AUTO 33005KT 5SM BR FEW002 BKN060 OVC090 21/19
A3002 RMK AO2 TSE1958RAE50 SLP160 P0017 60027 T02060194 58022 $





000
SAUS41 KLWX 212100 COR
MTRRSP
SPECI KRSP 212039Z AUTO 00000KT 3SM RA BR FEW060 BKN080 OVC090 21/19
A3004 RMK AO2 TSE1958 P0017 $





000
SAUS41 KLWX 212100
MTRRYT
METAR KRYT 212053Z AUTO 20004KT 10SM SCT075 BKN100 A3002 RMK AO2
SLPNO 55001 $





000
SAUS41 KLWX 212059 COR
MTRDMH
METAR KDMH 212054Z AUTO 28/22 A2998 RMK AO1 SLP152 T02780222 56008





000
SAUS41 KLWX 212055
MTRNAK
METAR KNAK 212054Z AUTO 13007KT 10SM CLR 27/22 A2998 RMK AO2 SLP155
T02720222 56010





000
SAUS41 KLWX 212014 COR
MTRRSP
SPECI KRSP 211958Z AUTO 28005KT 1SM RA BR FEW050 BKN080 OVC095 21/20
A3008 RMK AO2 TSE58 P0001 $





000
SAUS41 KLWX 212001 COR
MTRRSP
SPECI KRSP 211943Z AUTO 27009G15KT 1 3/4SM TSRA OVC090 23/18 A3008
RMK AO2 TSB35RAB35 P0003 $





000
SAUS41 KLWX 212000
MTRRYT
METAR KRYT 211953Z AUTO 00000KT 10SM FEW065 OVC095 A3001 RMK AO2
SLPNO $





000
SAUS41 KLWX 211959 COR
MTRDMH
METAR KDMH 211954Z AUTO 29/22 A2998 RMK AO1 SLP152 T02890222





000
SAUS41 KLWX 211955
MTRNAK
METAR KNAK 211954Z AUTO 13009KT 10SM CLR 27/22 A2998 RMK AO2 SLP155
T02720222





000
SAUS41 KLWX 211914 COR
MTRRSP
METAR KRSP 211854Z AUTO VRB06KT 10SM SCT100 27/16 A3007 RMK AO2
SLP173 T02670161 $





000
SAUS41 KLWX 211900
MTRRYT
METAR KRYT 211853Z AUTO 00000KT 10SM FEW110 A3001 RMK AO2 SLPNO $





000
SAUS41 KLWX 211859 COR
MTRDMH
METAR KDMH 211854Z AUTO 29/22 A2999 RMK AO1 SLP156 T02890222





000
SAUS41 KLWX 211855
MTRNAK
METAR KNAK 211854Z AUTO 13009KT 10SM CLR 27/23 A3000 RMK AO2 SLP162
T02720228





000
SAUS41 KLWX 211815 COR
MTRRSP
METAR KRSP 211754Z AUTO 00000KT 10SM FEW033 27/17 A3009 RMK AO2
SLP180 T02670172 10272 20194 58007 $





000
SAUS41 KLWX 211800
MTRRYT
METAR KRYT 211753Z AUTO 31003KT 10SM CLR 28/18 A3003 RMK AO2 SLP156
T02830178 10283 20194 58009 $





000
SAUS41 KLWX 211759 COR
MTRDMH
METAR KDMH 211754Z AUTO 29/22 A3001 RMK AO1 SLP161 T02940217 10306
20233 58011





000
SAUS41 KLWX 211755
MTRNAK
METAR KNAK 211754Z AUTO 14008KT 10SM CLR 27/22 A3001 RMK AO2 SLP165
60000 T02720222 10272 20239 58008 $





000
SAUS41 KLWX 211715 COR
MTRRSP
METAR KRSP 211654Z AUTO 00000KT 10SM CLR 26/18 A3010 RMK AO2 SLP280
T02610183 $





000
SAUS41 KLWX 211700
MTRRYT
METAR KRYT 211653Z AUTO 30003KT 10SM CLR 27/19 A3004 RMK AO2 SLP160
T02720194 $





000
SAUS41 KLWX 211659 COR
MTRDMH
METAR KDMH 211654Z AUTO 29/22 A3002 RMK AO1 SLP166 T02940217





000
SAUS41 KLWX 211655
MTRNAK
METAR KNAK 211654Z AUTO 12009KT 9SM CLR 26/23 A3002 RMK AO2 SLP168
T02560228 $





000
SAUS41 KLWX 211615 COR
MTRRSP
METAR KRSP 211554Z AUTO VRB04KT 10SM FEW014 24/20 A3011 RMK AO2
SLP188 T02390200 $





000
SAUS41 KLWX 211600
MTRRYT
METAR KRYT 211553Z AUTO 00000KT 10SM CLR 26/21 A3005 RMK AO2 SLP165
T02610206 $





000
SAUS41 KLWX 211559 COR
MTRDMH
METAR KDMH 211554Z AUTO 28/21 A3003 RMK AO1 SLP169 T02830211





000
SAUS41 KLWX 211555
MTRNAK
METAR KNAK 211554Z AUTO 13008KT 10SM SCT025 26/22 A3003 RMK AO2
SLP172 T02560222 $





000
SAUS41 KLWX 211514 COR
MTRRSP
METAR KRSP 211454Z AUTO VRB03KT 10SM FEW009 24/20 A3011 RMK AO2
SLP189 T02390200 53003 $





000
SAUS41 KLWX 211500
MTRRYT
METAR KRYT 211453Z AUTO VRB03KT 10SM CLR 25/20 A3005 RMK AO2 SLP166
T02500200 53001 $





000
SAUS41 KLWX 211459 COR
MTRDMH
METAR KDMH 211454Z AUTO 27/21 A3004 RMK AO1 SLP172 T02670206 58003





000
SAUS41 KLWX 211455
MTRNAK
METAR KNAK 211454Z AUTO 18004KT 10SM CLR 26/21 A3004 RMK AO2 SLP174
60000 T02610211 58000 $





000
SAUS41 KLWX 211440 COR
MTRRSP
SPECI KRSP 211419Z AUTO VRB05KT 10SM FEW009 23/19 A3011 RMK AO2 $





000
SAUS41 KLWX 211415 COR
MTRRSP
METAR KRSP 211354Z AUTO VRB04KT 10SM CLR 23/19 A3010 RMK AO2 SLP188
T02280194 $





000
SAUS41 KLWX 211400
MTRRYT
METAR KRYT 211353Z AUTO 00000KT 10SM CLR 24/20 A3005 RMK AO2 SLP165
T02440200 $





000
SAUS41 KLWX 211359 COR
MTRDMH
METAR KDMH 211354Z AUTO 26/22 A3004 RMK AO1 SLP172 T02560217





000
SAUS41 KLWX 211355
MTRNAK
METAR KNAK 211354Z AUTO 00000KT 10SM 25/21 A3004 RMK AO2 RAE1255
SLP173 P0000 T02500206 $





000
SAUS41 KLWX 211320
MTRRYT
SPECI KRYT 211313Z AUTO 00000KT 10SM SCT005 22/20 A3005 RMK AO2 $





000
SAUS41 KLWX 211315 COR
MTRRSP
METAR KRSP 211254Z AUTO 32005KT 9SM CLR 21/20 A3010 RMK AO2 SLP186
T02110200 $





000
SAUS41 KLWX 211307
MTRNAK
SPECI KNAK 211306Z AUTO 24003KT 10SM FEW021 BKN085 24/22 A3005 RMK
AO2 RAE1255 P0000 T02440217





000
SAUS41 KLWX 211302 COR
MTRDMH
METAR KDMH 211254Z AUTO 24/21 A3005 RMK AO1 SLP176 T02390211





000
SAUS41 KLWX 211300
MTRRYT
METAR KRYT 211253Z AUTO 00000KT 9SM OVC005 22/19 A3005 RMK AO2
SLP167 T02170194 $





000
SAUS41 KLWX 211255
MTRNAK
METAR KNAK 211254Z AUTO VRB04KT 10SM -RA FEW013 BKN020 OVC090 24/22
A3005 RMK AO2 RAB41 SLP178 P0000 T02390217





000
SAUS41 KLWX 211253 COR
MTRRSP
SPECI KRSP 211232Z AUTO 32004KT 8SM SCT001 21/19 A3010 RMK AO2 $





000
SAUS41 KLWX 211232 COR
MTRRSP
SPECI KRSP 211215Z AUTO 30004KT 3SM BR OVC001 19/19 A3011 RMK AO2 $





000
SAUS41 KLWX 211224
MTRRYT
SPECI KRYT 211217Z AUTO 00000KT 7SM OVC005 20/19 A3006 RMK AO2 $





000
SAUS41 KLWX 211215 COR
MTRRSP
METAR KRSP 211154Z AUTO VRB03KT 1/4SM FG VV001 19/19 A3010 RMK AO2
SLP188 60016 70041 T01890189 10194 20178 51016 $





000
SAUS41 KLWX 211200
MTRRYT
METAR KRYT 211153Z AUTO 00000KT 7SM BKN007 19/18 A3005 RMK AO2
SLP167 70010 T01940183 10200 20167 51008 $





000
SAUS41 KLWX 211159 COR
MTRDMH
METAR KDMH 211154Z AUTO 23/21 A3005 RMK AO1 SLP175 T02330206 10233
20222 51015





000
SAUS41 KLWX 211156
MTRNAK
METAR KNAK 211154Z AUTO 17004KT 10SM BKN011 24/22 A3004 RMK AO2
SLP174 7//// T02390217 10239 20222 53017





000
SAUS41 KLWX 211145
MTRNAK
SPECI KNAK 211143Z AUTO 13006KT 10SM BKN013 23/22 A3003 RMK AO2
T02330217 $





000
SAUS41 KLWX 211123
MTRNAK
SPECI KNAK 211122Z AUTO 00000KT 9SM BKN015 23/22 A3003 RMK AO2
T02330217 $





000
SAUS41 KLWX 211115 COR
MTRRSP
METAR KRSP 211054Z AUTO 28005KT M1/4SM FG VV001 18/18 A3009 RMK AO2
SLP183 T01830178 $





000
SAUS41 KLWX 211100
MTRRYT
METAR KRYT 211053Z AUTO 00000KT 6SM BR OVC009 18/17 A3004 RMK AO2
CIG 007V011 SLP163 T01780172 $





000
SAUS41 KLWX 211059 COR
MTRDMH
METAR KDMH 211054Z AUTO 23/21 A3004 RMK AO1 SLP170 T02280206





000
SAUS41 KLWX 211055
MTRNAK
METAR KNAK 211054Z AUTO 00000KT 8SM CLR 23/21 A3002 RMK AO2 SLP168
T02280211 $





000
SAUS41 KLWX 211015
MTRRYT
SPECI KRYT 211008Z AUTO 00000KT 8SM OVC013 18/17 A3003 RMK AO2 $





000
SAUS41 KLWX 211014 COR
MTRRSP
METAR KRSP 210954Z AUTO 29003KT 1/4SM FG VV003 18/18 A3007 RMK AO2
RAB16E38 SLP178 P0016 T01830178 $





000
SAUS41 KLWX 211005 COR
MTRRSP
SPECI KRSP 210945Z AUTO 22003KT 3/4SM BR VV004 18/18 A3005 RMK AO2
RAB16E38 P0016 $





000
SAUS41 KLWX 211001
MTRRYT
METAR KRYT 210953Z AUTO 00000KT 10SM BKN015 BKN110 18/17 A3003 RMK
AO2 SLP157 T01830172 $





000
SAUS41 KLWX 210959 COR
MTRDMH
METAR KDMH 210954Z AUTO 23/21 A3002 RMK AO1 SLP164 T02280206





000
SAUS41 KLWX 210955
MTRNAK
METAR KNAK 210954Z AUTO 00000KT 10SM CLR 23/21 A3000 RMK AO2 SLP162
T02280211 $





000
SAUS41 KLWX 210941 COR
MTRRSP
SPECI KRSP 210921Z AUTO 23006KT 1 1/2SM +RA BR OVC002 18/18 A3006
RMK AO2 RAB16 P0009 $





000
SAUS41 KLWX 210930 COR
MTRRSP
SPECI KRSP 210910Z AUTO 20006KT 5SM BR BKN002 18/17 A3005 RMK AO2 $





000
SAUS41 KLWX 210912 COR
MTRRSP
METAR KRSP 210854Z AUTO 19003KT 6SM BR SCT002 BKN033 BKN043 18/17
A3005 RMK AO2 SLP172 T01780172 50002 $





000
SAUS41 KLWX 210900
MTRRYT
METAR KRYT 210853Z AUTO 00000KT 6SM BR CLR 17/16 A3001 RMK AO2
SLP154 T01670156 56001 $





000
SAUS41 KLWX 210859 COR
MTRDMH
METAR KDMH 210854Z AUTO 22/19 A3000 RMK AO1 SLP160 T02220194 55002





000
SAUS41 KLWX 210855
MTRNAK
METAR KNAK 210854Z AUTO 18003KT 10SM FEW015 SCT032 23/21 A2999 RMK
AO2 SLP157 T02280206 56006 $





000
SAUS41 KLWX 210814 COR
MTRRSP
METAR KRSP 210754Z AUTO 00000KT 9SM CLR 18/17 A3005 RMK AO2 SLP171
T01780167 $





000
SAUS41 KLWX 210800
MTRRYT
METAR KRYT 210753Z AUTO 00000KT 8SM CLR 17/17 A3001 RMK AO2 SLP154
T01720167 $





000
SAUS41 KLWX 210759 COR
MTRDMH
METAR KDMH 210754Z AUTO 23/20 A3000 RMK AO1 SLP159 T02280200





000
SAUS41 KLWX 210755
MTRNAK
METAR KNAK 210754Z AUTO 18004KT 10SM FEW031 22/21 A2999 RMK AO2
SLP157 T02220206 $





000
SAUS41 KLWX 210714 COR
MTRRSP
METAR KRSP 210654Z AUTO 24004KT 10SM CLR 19/17 A3004 RMK AO2 SLP169
T01890172 $





000
SAUS41 KLWX 210700
MTRRYT
METAR KRYT 210653Z AUTO 00000KT 6SM BR CLR 17/16 A3000 RMK AO2
SLP150 T01720161 $





000
SAUS41 KLWX 210659 COR
MTRDMH
METAR KDMH 210654Z AUTO 23/18 A3001 RMK AO1 SLP160 T02330183





000
SAUS41 KLWX 210655
MTRNAK
METAR KNAK 210654Z AUTO 18004KT 10SM CLR 23/20 A2999 RMK AO2 SLP159
T02280200 $





000
SAUS41 KLWX 210615 COR
MTRRSP
METAR KRSP 210554Z AUTO 23004KT 10SM CLR 18/17 A3005 RMK AO2 SLP171
T01830167 10194 20183 58006 $





000
SAUS41 KLWX 210600
MTRRYT
METAR KRYT 210553Z AUTO 00000KT 8SM BKN110 18/17 A3001 RMK AO2
SLP153 60001 T01780167 10217 20178 58005 $





000
SAUS41 KLWX 210559 COR
MTRDMH
METAR KDMH 210554Z AUTO 23/18 A3001 RMK AO1 SLP162 T02330178 10256
20233 58004





000
SAUS41 KLWX 210555
MTRNAK
METAR KNAK 210554Z AUTO 15005KT 10SM FEW024 SCT033 BKN039 23/20
A3001 RMK AO2 SLP162 6//// T02280200 10250 20228 58006 $





000
SAUS41 KLWX 210515 COR
MTRRSP
METAR KRSP 210454Z AUTO 21005KT 10SM FEW100 18/17 A3006 RMK AO2
SLP173 T01830167 402390183 $





000
SAUS41 KLWX 210500
MTRRYT
METAR KRYT 210453Z AUTO 00000KT 8SM CLR 18/17 A3003 RMK AO2 SLP158
T01780167 402670178 $





000
SAUS41 KLWX 210459 COR
MTRDMH
METAR KDMH 210454Z AUTO 24/18 A3002 RMK AO1 SLP165 T02390183
402890228





000
SAUS41 KLWX 210455
MTRNAK
METAR KNAK 210454Z AUTO 14009KT 10SM SCT043 24/19 A3001 RMK AO2
SLP164 T02390194 402780200 $





000
SAUS41 KLWX 210414 COR
MTRRSP
METAR KRSP 210354Z AUTO 21006KT 10SM CLR 19/16 A3008 RMK AO2 SLP178
T01890161 $





000
SAUS41 KLWX 210414 COR
MTRRSP
METAR KRSP 210354Z AUTO 21006KT 10SM CLR 19/16 A3008 RMK AO2 SLP178
T01890161 $





000
SAUS41 KLWX 210400
MTRRYT
METAR KRYT 210353Z AUTO 00000KT 10SM CLR 19/17 A3003 RMK AO2 SLP158
T01890172 $





000
SAUS41 KLWX 210359 COR
MTRDMH
METAR KDMH 210354Z AUTO 24/18 A3002 RMK AO1 SLP167 T02390183





000
SAUS41 KLWX 210355
MTRNAK
METAR KNAK 210354Z AUTO 17006KT 4SM HZ SCT050 23/18 A3002 RMK AO2
SLP167 T02330178 $





000
SAUS41 KLWX 210314 COR
MTRRSP
METAR KRSP 210254Z AUTO 24007KT 220V280 10SM SCT042 19/16 A3007 RMK
AO2 SLP178 T01890156 53012 $





000
SAUS41 KLWX 210300
MTRRYT
METAR KRYT 210253Z AUTO 00000KT 7SM BKN050 19/18 A3003 RMK AO2
SLP159 60001 T01890178 53015 $





000
SAUS41 KLWX 210259 COR
MTRDMH
METAR KDMH 210254Z AUTO 24/18 A3002 RMK AO1 SLP166 T02440183 53016





000
SAUS41 KLWX 210255
MTRNAK
METAR KNAK 210254Z AUTO 17003KT 10SM SCT050 SCT080 23/18 A3002 RMK
AO2 SLP169 6//// T02330178 53020 $





000
SAUS41 KLWX 210215 COR
MTRRSP
METAR KRSP 210154Z AUTO 20006KT 10SM FEW080 19/16 A3005 RMK AO2
SLP172 T01890156 $





000
SAUS41 KLWX 210200
MTRRYT
METAR KRYT 210153Z AUTO 23003KT 8SM BKN055 BKN075 20/19 A3000 RMK
AO2 SLP150 P0001 T02000189 $





000
SAUS41 KLWX 210159 COR
MTRDMH
METAR KDMH 210154Z AUTO 25/18 A2999 RMK AO1 SLP154 T02500183





000
SAUS41 KLWX 210155
MTRNAK
METAR KNAK 210154Z AUTO 17003KT 10SM 24/17 A2998 RMK AO2 SLP154
T02390172 $





000
SAUS41 KLWX 210114 COR
MTRRSP
METAR KRSP 210054Z AUTO 21005KT 10SM BKN050 BKN065 19/17 A3005 RMK
AO2 SLP169 T01940167 $





000
SAUS41 KLWX 210100
MTRRYT
METAR KRYT 210053Z AUTO 00000KT 9SM SCT080 21/19 A3000 RMK AO2
SLP147 T02060189 $





000
SAUS41 KLWX 210059 COR
MTRDMH
METAR KDMH 210054Z AUTO 25/18 A2998 RMK AO1 SLP152 T02500178





000
SAUS41 KLWX 210055
MTRNAK
METAR KNAK 210054Z AUTO 16006KT 10SM 25/18 A2997 RMK AO2 SLP149
T02500183 $





000
SAUS41 KLWX 210015 COR
MTRRSP
METAR KRSP 202354Z AUTO 18007KT 10SM CLR 19/18 A3003 RMK AO2 SLP165
60025 T01940178 10228 20194 51004 $





000
SAUS41 KLWX 210000
MTRRYT
METAR KRYT 202353Z AUTO 00000KT 10SM FEW050 22/19 A2999 RMK AO2
SLP144 60009 T02170194 10256 20217 53004 $





000
SAUS41 KLWX 202359 COR
MTRDMH
METAR KDMH 202354Z AUTO 26/18 A2998 RMK AO1 SLP150 T02560178 10289
20256 53003





000
SAUS41 KLWX 202355
MTRNAK
METAR KNAK 202354Z AUTO 10SM FEW110 24/19 A2997 RMK AO2 RAB15E49
SLP149 P0000 60000 T02440189 10278 20244 53001 $





000
SAUS41 KLWX 202314 COR
MTRRSP
METAR KRSP 202254Z AUTO 19007KT 10SM FEW065 21/18 A3003 RMK AO2
SLP164 T02060178 $





000
SAUS41 KLWX 202300
MTRRYT
METAR KRYT 202253Z AUTO 00000KT 10SM CLR 23/19 A2998 RMK AO2 SLP141
T02280189 $





000
SAUS41 KLWX 202259 COR
MTRDMH
METAR KDMH 202254Z AUTO 26/18 A2996 RMK AO1 SLP146 T02610183





000
SAUS41 KLWX 202256
MTRNAK
METAR KNAK 202254Z AUTO 18009G18KT 10SM FEW100 26/18 A2995 RMK AO2
PRESFR SLP142 T02560178 $





000
SAUS41 KLWX 202214 COR
MTRRSP
METAR KRSP 202154Z AUTO 19008KT 10SM FEW085 22/19 A3003 RMK AO2
SLP161 T02170189 $





000
SAUS41 KLWX 202200
MTRRYT
METAR KRYT 202153Z AUTO 00000KT 10SM FEW095 24/19 A2998 RMK AO2
SLP141 T02390194 $





000
SAUS41 KLWX 202159 COR
MTRDMH
METAR KDMH 202154Z AUTO 27/17 A2998 RMK AO1 SLP150 T02720172





000
SAUS41 KLWX 202155
MTRNAK
METAR KNAK 202154Z AUTO 18006KT 10SM SCT110 27/18 A2998 RMK AO2
SLP152 T02670178 $





000
SAUS41 KLWX 202114 COR
MTRRSP
METAR KRSP 202054Z AUTO 18005KT 10SM FEW070 OVC090 21/18 A3002 RMK
AO2 SLP160 60025 T02110183 51004 $





000
SAUS41 KLWX 202100
MTRRYT
METAR KRYT 202053Z AUTO 00000KT 10SM OVC100 23/20 A2997 RMK AO2
SLP139 60009 T02330200 53001 $





000
SAUS41 KLWX 202059 COR
MTRDMH
METAR KDMH 202054Z AUTO 28/17 A2997 RMK AO1 SLP147 T02780167 53001





000
SAUS41 KLWX 202055
MTRNAK
METAR KNAK 202054Z AUTO 14008KT 10SM OVC070 28/18 A2996 RMK AO2
SLP148 T02780178 55003 $





000
SAUS41 KLWX 202015 COR
MTRRSP
METAR KRSP 201954Z AUTO VRB06KT 10SM SCT090 BKN110 21/19 A3002 RMK
AO2 TSE11RAE33 SLP159 P0015 T02060189 $





000
SAUS41 KLWX 202000
MTRRYT
METAR KRYT 201953Z AUTO VRB03KT 8SM FEW044 SCT070 OVC110 22/19 A2996
RMK AO2 TSE43RAB1855E52 SLP137 P0009 T02220194 $





000
SAUS41 KLWX 201959 COR
MTRDMH
METAR KDMH 201954Z AUTO 28/17 A2996 RMK AO1 SLP143 T02830172





000
SAUS41 KLWX 201955
MTRNAK
METAR KNAK 201954Z AUTO 12007KT 10SM OVC075 27/18 A2996 RMK AO2
SLP146 T02670178 $





000
SAUS41 KLWX 201949
MTRRYT
SPECI KRYT 201943Z AUTO 00000KT 2 1/2SM -RA BR FEW050 SCT070 OVC090
22/20 A2996 RMK AO2 TSE43RAB1855 P0009 $





000
SAUS41 KLWX 201942 COR
MTRRSP
SPECI KRSP 201922Z AUTO VRB04KT 5SM -RA BR SCT022 BKN038 OVC095
20/18 A3001 RMK AO2 TSE11 PRESFR P0015 $





000
SAUS41 KLWX 201936
MTRRYT
SPECI KRYT 201929Z AUTO 00000KT 2SM -TSRA BR FEW065 BKN080 OVC100
22/20 A2997 RMK AO2 RAB1855 P0007 $





000
SAUS41 KLWX 201931 COR
MTRRSP
SPECI KRSP 201911Z AUTO VRB06G14KT 2SM -RA BR SCT026 BKN040 OVC095
20/19 A3003 RMK AO2 TSE11 P0014 $





000
SAUS41 KLWX 201910 COR
MTRRSP
METAR KRSP 201854Z AUTO 24005KT 3/4SM +TSRA BR FEW024 BKN050 OVC090
20/18 A3004 RMK AO2 TSB32RAB34 SLP165 P0010 T02000183 $





000
SAUS41 KLWX 201900
MTRRYT
METAR KRYT 201853Z AUTO 00000KT 10SM TS FEW042 BKN065 OVC110 24/20
A2997 RMK AO2 TSB44 SLP137 T02390200 $





000
SAUS41 KLWX 201859 COR
MTRDMH
METAR KDMH 201854Z AUTO 28/16 A2996 RMK AO1 SLP146 T02780161





000
SAUS41 KLWX 201858 COR
MTRRSP
SPECI KRSP 201838Z AUTO VRB04KT 6SM -TSRA SCT028 BKN060 BKN080 22/18
A3002 RMK AO2 TSB32RAB34 P0000 $





000
SAUS41 KLWX 201857
MTRNAK
METAR KNAK 201854Z AUTO 13008KT 10SM CLR 27/17 A2996 RMK AO2 SLP147
T02720172 $





000
SAUS41 KLWX 201832 COR
MTRRSP
SPECI KRSP 201812Z AUTO 19006KT 10SM FEW017 SCT027 BKN046 23/19
A3002 RMK AO2 $





000
SAUS41 KLWX 201815 COR
MTRRSP
METAR KRSP 201754Z AUTO VRB05G16KT 10SM BKN017 BKN027 BKN044 23/19
A3001 RMK AO2 SLP156 T02280189 10239 20194 55011 $





000
SAUS41 KLWX 201800
MTRRYT
METAR KRYT 201753Z AUTO 00000KT 10SM FEW028 BKN036 BKN044 26/19
A2995 RMK AO2 SLP131 T02560194 10267 20206 55014 $





000
SAUS41 KLWX 201759 COR
MTRDMH
METAR KDMH 201754Z AUTO 27/17 A2996 RMK AO1 SLP146 T02720167 10278
20233 58016





000
SAUS41 KLWX 201756
MTRNAK
METAR KNAK 201754Z AUTO 13007KT 10SM CLR 26/17 A2997 RMK AO2 SLP152
T02610172 10261 20228 58013





000
SAUS41 KLWX 201754 COR
MTRRSP
SPECI KRSP 201733Z AUTO VRB04KT 10SM SCT015 BKN019 BKN026 24/19
A3000 RMK AO2 $





000
SAUS41 KLWX 201715 COR
MTRRSP
METAR KRSP 201654Z AUTO 16010G16KT 130V190 10SM BKN013 BKN033 23/19
A3000 RMK AO2 SLP152 T02330194 $





000
SAUS41 KLWX 201700
MTRRYT
METAR KRYT 201653Z AUTO VRB04KT 10SM FEW022 SCT030 26/20 A2995 RMK
AO2 SLP130 T02610200 $





000
SAUS41 KLWX 201659 COR
MTRDMH
METAR KDMH 201654Z AUTO 27/18 A2998 RMK AO1 SLP151 T02720178





000
SAUS41 KLWX 201655
MTRNAK
METAR KNAK 201654Z AUTO 12008KT 10SM FEW080 26/18 A2998 RMK AO2
SLP155 T02560178 $





000
SAUS41 KLWX 201648
MTRRYT
SPECI KRYT 201641Z AUTO 00000KT 10SM FEW022 SCT028 26/20 A2996 RMK
AO2 $





000
SAUS41 KLWX 201635
MTRRYT
SPECI KRYT 201628Z AUTO VRB04KT 10SM FEW020 BKN028 25/20 A2997 RMK
AO2 $





000
SAUS41 KLWX 201623 COR
MTRRSP
SPECI KRSP 201603Z AUTO 18008KT 10SM SCT007 BKN013 OVC019 23/19
A3003 RMK AO2 $





000
SAUS41 KLWX 201619
MTRRYT
SPECI KRYT 201612Z AUTO 00000KT 10SM FEW018 SCT026 SCT033 25/19
A2998 RMK AO2 $





000
SAUS41 KLWX 201614 COR
MTRRSP
METAR KRSP 201554Z AUTO VRB06KT 10SM BKN007 OVC016 22/19 A3003 RMK
AO2 CIG 006V012 SLP164 T02220189 $





000
SAUS41 KLWX 201600
MTRRYT
METAR KRYT 201553Z AUTO 25006KT 10SM SCT018 BKN026 25/20 A2999 RMK
AO2 SLP142 T02500200 $





000
SAUS41 KLWX 201559 COR
MTRDMH
METAR KDMH 201554Z AUTO 26/19 A3000 RMK AO1 SLP158 T02610189





000
SAUS41 KLWX 201556
MTRNAK
METAR KNAK 201554Z AUTO 12008KT 10SM SCT090 25/18 A3000 RMK AO2
SLP161 T02500183





000
SAUS41 KLWX 201549 COR
MTRRSP
SPECI KRSP 201529Z AUTO 19007KT 8SM BKN005 OVC010 22/19 A3004 RMK
AO2 CIG 003V007 $





000
SAUS41 KLWX 201523 COR
MTRRSP
SPECI KRSP 201504Z AUTO 18008KT 160V220 5SM BR OVC003 21/19 A3004
RMK AO2 CIG 003V008 $





000
SAUS41 KLWX 201514 COR
MTRRSP
METAR KRSP 201454Z AUTO VRB04KT 6SM BR OVC005 21/19 A3005 RMK AO2
CIG 003V008 SLP168 T02110189 53010 $





000
SAUS41 KLWX 201500
MTRRYT
METAR KRYT 201453Z AUTO 00000KT 10SM OVC019 24/20 A2999 RMK AO2
SLP145 T02390200 53009 $





000
SAUS41 KLWX 201459 COR
MTRDMH
METAR KDMH 201454Z AUTO 26/19 A3001 RMK AO1 SLP162 T02560189 53012





000
SAUS41 KLWX 201457 COR
MTRRSP
SPECI KRSP 201437Z AUTO 18006KT 7SM OVC005 21/19 A3004 RMK AO2 CIG
003V008 $





000
SAUS41 KLWX 201456
MTRNAK
METAR KNAK 201454Z AUTO 12008KT 10SM OVC100 24/19 A3001 RMK AO2
SLP165 T02390189 53015





000
SAUS41 KLWX 201448
MTRRYT
SPECI KRYT 201441Z AUTO 00000KT 10SM BKN016 OVC021 24/19 A3000 RMK
AO2 $





000
SAUS41 KLWX 201414 COR
MTRRSP
METAR KRSP 201354Z AUTO 19004KT 4SM BR OVC003 21/19 A3004 RMK AO2
SLP166 T02060189 $





000
SAUS41 KLWX 201400
MTRRYT
METAR KRYT 201353Z AUTO 00000KT 9SM OVC010 22/19 A2999 RMK AO2
SLP144 T02220194 $





000
SAUS41 KLWX 201359 COR
MTRDMH
METAR KDMH 201354Z AUTO 24/18 A3000 RMK AO1 SLP157 T02440183





000
SAUS41 KLWX 201355
MTRNAK
METAR KNAK 201354Z AUTO 13008KT 10SM FEW080 BKN100 24/19 A3000 RMK
AO2 SLP160 T02390189





    US Dept of Commerce
    National Oceanic and Atmospheric Administration
    National Weather Service
    1325 East West Highway
    Silver Spring, MD 20910
    Page Author: NWS Internet Services Team
Disclaimer
Information Quality
Credits
Glossary
Privacy Policy
Freedom of Information Act (FOIA)
About Us
Career Opportunities